Adams, Wisconsin
Current Conditions -  °F | °C
As of 5:58 AM on Saturday 01 Nov 2014 (Local Time) from KVOK Reporting Station
Clear Clear  
Wind Chill: 13°   Ceiling: Unl
Heat Index: 13°   Visibility: 10mi
Dew Point: 13°   Wind: 2mph
Humidity: 99%   Direction: 280°W
Pressure: 30.48"   Gusts: NA
Location:  43.96°N, 89.82°W
Report Text: KVOK 011058Z AUTO 28002KT 10SM CLR M10/M10 A3048 RMK AO2 SLP340 T11041105
Loading
Personal Weather Stations






























Interactive Weather Map
Tropical Storm Tracking
New forecast layout! Learn more

10-Day Weather Forecast

Advertisements
Track Severe Weather on mobile